sensor_id;sensor_type;location;lat;lon;timestamp;temperature;humidity
2441;DHT22;1231;53.988;9.470;2022-07-29T00:00:29;13.20;78.90
2441;DHT22;1231;53.988;9.470;2022-07-29T00:02:59;13.10;78.70
2441;DHT22;1231;53.988;9.470;2022-07-29T00:05:30;13.10;78.70
2441;DHT22;1231;53.988;9.470;2022-07-29T00:08:01;13.00;78.70
2441;DHT22;1231;53.988;9.470;2022-07-29T00:10:31;13.00;78.90
2441;DHT22;1231;53.988;9.470;2022-07-29T00:13:02;13.00;79.40
2441;DHT22;1231;53.988;9.470;2022-07-29T00:15:33;13.00;79.70
2441;DHT22;1231;53.988;9.470;2022-07-29T00:18:03;13.00;80.00
2441;DHT22;1231;53.988;9.470;2022-07-29T00:20:34;13.00;80.20
2441;DHT22;1231;53.988;9.470;2022-07-29T00:23:05;12.90;80.20
2441;DHT22;1231;53.988;9.470;2022-07-29T00:25:35;12.90;80.20
2441;DHT22;1231;53.988;9.470;2022-07-29T00:28:06;12.90;80.20
2441;DHT22;1231;53.988;9.470;2022-07-29T00:30:36;12.90;80.20
2441;DHT22;1231;53.988;9.470;2022-07-29T00:33:07;12.80;80.30
2441;DHT22;1231;53.988;9.470;2022-07-29T00:35:37;12.80;80.40
2441;DHT22;1231;53.988;9.470;2022-07-29T00:38:16;12.80;80.40
2441;DHT22;1231;53.988;9.470;2022-07-29T00:40:47;12.80;80.20
2441;DHT22;1231;53.988;9.470;2022-07-29T00:43:18;12.70;80.10
2441;DHT22;1231;53.988;9.470;2022-07-29T00:45:48;12.60;80.00
2441;DHT22;1231;53.988;9.470;2022-07-29T00:48:19;12.60;80.10
2441;DHT22;1231;53.988;9.470;2022-07-29T00:50:50;12.50;80.40
2441;DHT22;1231;53.988;9.470;2022-07-29T00:53:21;12.40;80.50
2441;DHT22;1231;53.988;9.470;2022-07-29T00:55:53;12.30;80.50
2441;DHT22;1231;53.988;9.470;2022-07-29T00:58:26;12.20;80.70
2441;DHT22;1231;53.988;9.470;2022-07-29T01:00:57;12.10;80.80
2441;DHT22;1231;53.988;9.470;2022-07-29T01:03:28;12.10;81.10
2441;DHT22;1231;53.988;9.470;2022-07-29T01:05:59;12.00;81.20
2441;DHT22;1231;53.988;9.470;2022-07-29T01:08:31;12.00;81.20
2441;DHT22;1231;53.988;9.470;2022-07-29T01:11:03;12.00;81.40
2441;DHT22;1231;53.988;9.470;2022-07-29T01:13:34;12.00;81.50
2441;DHT22;1231;53.988;9.470;2022-07-29T01:16:14;12.00;81.60
2441;DHT22;1231;53.988;9.470;2022-07-29T01:18:49;11.90;81.70
2441;DHT22;1231;53.988;9.470;2022-07-29T01:26:46;11.80;82.60
2441;DHT22;1231;53.988;9.470;2022-07-29T01:29:36;11.70;82.80
2441;DHT22;1231;53.988;9.470;2022-07-29T01:32:14;11.70;83.00
2441;DHT22;1231;53.988;9.470;2022-07-29T01:40:49;11.50;83.50
2441;DHT22;1231;53.988;9.470;2022-07-29T01:43:29;11.50;83.70
2441;DHT22;1231;53.988;9.470;2022-07-29T01:46:05;11.50;83.90
2441;DHT22;1231;53.988;9.470;2022-07-29T01:48:50;11.40;84.10
2441;DHT22;1231;53.988;9.470;2022-07-29T01:51:47;11.40;84.10
2441;DHT22;1231;53.988;9.470;2022-07-29T01:54:38;11.40;84.10
2441;DHT22;1231;53.988;9.470;2022-07-29T01:57:14;11.40;84.10
2441;DHT22;1231;53.988;9.470;2022-07-29T01:59:48;11.40;84.10
2441;DHT22;1231;53.988;9.470;2022-07-29T02:02:21;11.40;84.10
2441;DHT22;1231;53.988;9.470;2022-07-29T02:04:54;11.40;84.20
2441;DHT22;1231;53.988;9.470;2022-07-29T02:07:28;11.40;84.20
2441;DHT22;1231;53.988;9.470;2022-07-29T02:10:00;11.40;84.20
2441;DHT22;1231;53.988;9.470;2022-07-29T02:12:33;11.40;84.30
2441;DHT22;1231;53.988;9.470;2022-07-29T02:15:06;11.40;84.40
2441;DHT22;1231;53.988;9.470;2022-07-29T02:17:49;11.50;84.50
2441;DHT22;1231;53.988;9.470;2022-07-29T02:20:22;11.50;84.60
2441;DHT22;1231;53.988;9.470;2022-07-29T02:22:54;11.50;84.60
2441;DHT22;1231;53.988;9.470;2022-07-29T02:25:26;11.50;84.80
2441;DHT22;1231;53.988;9.470;2022-07-29T02:27:59;11.60;85.00
2441;DHT22;1231;53.988;9.470;2022-07-29T02:30:31;11.60;85.00
2441;DHT22;1231;53.988;9.470;2022-07-29T02:33:03;11.60;85.00
2441;DHT22;1231;53.988;9.470;2022-07-29T02:35:35;11.60;85.00
2441;DHT22;1231;53.988;9.470;2022-07-29T02:38:06;11.60;85.00
2441;DHT22;1231;53.988;9.470;2022-07-29T02:40:57;11.70;85.00
2441;DHT22;1231;53.988;9.470;2022-07-29T02:43:30;11.70;85.00
2441;DHT22;1231;53.988;9.470;2022-07-29T02:46:05;11.70;85.10
2441;DHT22;1231;53.988;9.470;2022-07-29T02:48:43;11.70;85.10
2441;DHT22;1231;53.988;9.470;2022-07-29T02:51:21;11.70;85.20
2441;DHT22;1231;53.988;9.470;2022-07-29T02:53:56;11.70;85.20
2441;DHT22;1231;53.988;9.470;2022-07-29T02:56:28;11.70;85.40
2441;DHT22;1231;53.988;9.470;2022-07-29T02:59:08;11.70;85.40
2441;DHT22;1231;53.988;9.470;2022-07-29T03:01:42;11.70;85.30
2441;DHT22;1231;53.988;9.470;2022-07-29T03:04:15;11.70;85.30
2441;DHT22;1231;53.988;9.470;2022-07-29T03:06:46;11.70;85.30
2441;DHT22;1231;53.988;9.470;2022-07-29T03:09:19;11.70;85.30
2441;DHT22;1231;53.988;9.470;2022-07-29T03:11:52;11.70;85.30
2441;DHT22;1231;53.988;9.470;2022-07-29T03:14:25;11.70;85.10
2441;DHT22;1231;53.988;9.470;2022-07-29T03:16:57;11.60;85.00
2441;DHT22;1231;53.988;9.470;2022-07-29T03:19:29;11.60;85.00
2441;DHT22;1231;53.988;9.470;2022-07-29T03:22:00;11.60;85.00
2441;DHT22;1231;53.988;9.470;2022-07-29T03:24:35;11.60;85.00
2441;DHT22;1231;53.988;9.470;2022-07-29T03:27:06;11.60;85.20
2441;DHT22;1231;53.988;9.470;2022-07-29T03:29:37;11.60;85.30
2441;DHT22;1231;53.988;9.470;2022-07-29T03:32:08;11.70;85.40
2441;DHT22;1231;53.988;9.470;2022-07-29T03:34:38;11.70;85.30
2441;DHT22;1231;53.988;9.470;2022-07-29T03:37:09;11.70;85.30
2441;DHT22;1231;53.988;9.470;2022-07-29T03:39:41;11.80;85.20
2441;DHT22;1231;53.988;9.470;2022-07-29T03:42:15;11.80;85.30
2441;DHT22;1231;53.988;9.470;2022-07-29T03:44:48;11.80;85.40
2441;DHT22;1231;53.988;9.470;2022-07-29T03:47:22;11.80;85.40
2441;DHT22;1231;53.988;9.470;2022-07-29T03:49:58;11.80;85.40
2441;DHT22;1231;53.988;9.470;2022-07-29T03:52:30;11.90;85.30
2441;DHT22;1231;53.988;9.470;2022-07-29T03:55:02;11.90;85.30
2441;DHT22;1231;53.988;9.470;2022-07-29T03:57:34;11.90;85.30
2441;DHT22;1231;53.988;9.470;2022-07-29T04:00:06;11.90;85.20
2441;DHT22;1231;53.988;9.470;2022-07-29T04:02:38;12.00;85.10
2441;DHT22;1231;53.988;9.470;2022-07-29T04:05:12;12.00;85.10
2441;DHT22;1231;53.988;9.470;2022-07-29T04:07:47;12.00;85.00
2441;DHT22;1231;53.988;9.470;2022-07-29T04:10:18;12.10;85.00
2441;DHT22;1231;53.988;9.470;2022-07-29T04:12:53;12.10;84.90
2441;DHT22;1231;53.988;9.470;2022-07-29T04:15:24;12.10;84.90
2441;DHT22;1231;53.988;9.470;2022-07-29T04:17:55;12.10;84.80
2441;DHT22;1231;53.988;9.470;2022-07-29T04:20:26;12.20;84.80
2441;DHT22;1231;53.988;9.470;2022-07-29T04:22:56;12.20;84.70
2441;DHT22;1231;53.988;9.470;2022-07-29T04:25:27;12.20;84.60
2441;DHT22;1231;53.988;9.470;2022-07-29T04:27:57;12.30;84.50
2441;DHT22;1231;53.988;9.470;2022-07-29T04:30:32;12.30;84.50
2441;DHT22;1231;53.988;9.470;2022-07-29T04:33:05;12.30;84.50
2441;DHT22;1231;53.988;9.470;2022-07-29T04:35:37;12.40;84.30
2441;DHT22;1231;53.988;9.470;2022-07-29T04:38:08;12.40;84.30
2441;DHT22;1231;53.988;9.470;2022-07-29T04:40:38;12.50;84.30
2441;DHT22;1231;53.988;9.470;2022-07-29T04:43:09;12.60;84.20
2441;DHT22;1231;53.988;9.470;2022-07-29T04:45:40;12.70;84.10
2441;DHT22;1231;53.988;9.470;2022-07-29T04:48:11;12.80;83.70
2441;DHT22;1231;53.988;9.470;2022-07-29T04:50:42;12.90;83.50
2441;DHT22;1231;53.988;9.470;2022-07-29T04:53:12;12.90;83.30
2441;DHT22;1231;53.988;9.470;2022-07-29T04:55:43;13.00;83.20
2441;DHT22;1231;53.988;9.470;2022-07-29T04:58:14;13.10;83.20
2441;DHT22;1231;53.988;9.470;2022-07-29T05:00:44;13.20;83.10
2441;DHT22;1231;53.988;9.470;2022-07-29T05:03:15;13.30;83.10
2441;DHT22;1231;53.988;9.470;2022-07-29T05:05:45;13.30;83.00
2441;DHT22;1231;53.988;9.470;2022-07-29T05:08:16;13.40;82.80
2441;DHT22;1231;53.988;9.470;2022-07-29T05:10:47;13.50;82.60
2441;DHT22;1231;53.988;9.470;2022-07-29T05:13:17;13.60;82.50
2441;DHT22;1231;53.988;9.470;2022-07-29T05:15:48;13.70;82.40
2441;DHT22;1231;53.988;9.470;2022-07-29T05:18:18;13.80;82.30
2441;DHT22;1231;53.988;9.470;2022-07-29T05:20:49;13.90;82.10
2441;DHT22;1231;53.988;9.470;2022-07-29T05:23:19;14.00;81.90
2441;DHT22;1231;53.988;9.470;2022-07-29T05:25:50;14.10;81.70
2441;DHT22;1231;53.988;9.470;2022-07-29T05:28:21;14.20;81.40
2441;DHT22;1231;53.988;9.470;2022-07-29T05:30:51;14.30;81.50
2441;DHT22;1231;53.988;9.470;2022-07-29T05:33:22;14.40;81.20
2441;DHT22;1231;53.988;9.470;2022-07-29T05:35:52;14.50;81.00
2441;DHT22;1231;53.988;9.470;2022-07-29T05:38:23;14.60;80.90
2441;DHT22;1231;53.988;9.470;2022-07-29T05:40:56;14.70;80.90
2441;DHT22;1231;53.988;9.470;2022-07-29T05:43:28;14.90;80.60
2441;DHT22;1231;53.988;9.470;2022-07-29T05:45:59;15.00;80.30
2441;DHT22;1231;53.988;9.470;2022-07-29T05:48:30;15.10;79.90
2441;DHT22;1231;53.988;9.470;2022-07-29T05:51:01;15.20;79.60
2441;DHT22;1231;53.988;9.470;2022-07-29T05:53:32;15.30;79.40
2441;DHT22;1231;53.988;9.470;2022-07-29T05:56:03;15.40;79.10
2441;DHT22;1231;53.988;9.470;2022-07-29T05:58:35;15.50;79.00
2441;DHT22;1231;53.988;9.470;2022-07-29T06:01:06;15.70;78.70
2441;DHT22;1231;53.988;9.470;2022-07-29T06:03:37;15.80;78.30
2441;DHT22;1231;53.988;9.470;2022-07-29T06:06:08;15.90;77.70
2441;DHT22;1231;53.988;9.470;2022-07-29T06:08:39;16.10;77.40
2441;DHT22;1231;53.988;9.470;2022-07-29T06:11:10;16.20;76.90
2441;DHT22;1231;53.988;9.470;2022-07-29T06:13:41;16.30;76.20
2441;DHT22;1231;53.988;9.470;2022-07-29T06:16:11;16.40;76.30
2441;DHT22;1231;53.988;9.470;2022-07-29T06:18:42;16.50;76.00
2441;DHT22;1231;53.988;9.470;2022-07-29T06:21:13;16.60;75.40
2441;DHT22;1231;53.988;9.470;2022-07-29T06:23:44;16.80;75.50
2441;DHT22;1231;53.988;9.470;2022-07-29T06:26:15;17.00;75.10
2441;DHT22;1231;53.988;9.470;2022-07-29T06:28:46;17.10;74.60
2441;DHT22;1231;53.988;9.470;2022-07-29T06:31:17;17.20;74.30
2441;DHT22;1231;53.988;9.470;2022-07-29T06:33:47;17.30;73.70
2441;DHT22;1231;53.988;9.470;2022-07-29T06:36:18;17.60;73.20
2441;DHT22;1231;53.988;9.470;2022-07-29T06:38:49;18.00;73.40
2441;DHT22;1231;53.988;9.470;2022-07-29T06:41:19;18.90;72.70
2441;DHT22;1231;53.988;9.470;2022-07-29T06:43:50;20.10;70.10
2441;DHT22;1231;53.988;9.470;2022-07-29T06:46:22;21.20;67.40
2441;DHT22;1231;53.988;9.470;2022-07-29T06:48:53;22.40;64.90
2441;DHT22;1231;53.988;9.470;2022-07-29T06:51:23;23.40;61.80
2441;DHT22;1231;53.988;9.470;2022-07-29T06:53:54;24.20;59.10
2441;DHT22;1231;53.988;9.470;2022-07-29T06:56:25;24.50;56.20
2441;DHT22;1231;53.988;9.470;2022-07-29T06:58:55;24.70;54.70
2441;DHT22;1231;53.988;9.470;2022-07-29T07:01:26;24.60;53.90
2441;DHT22;1231;53.988;9.470;2022-07-29T07:03:57;24.40;53.70
2441;DHT22;1231;53.988;9.470;2022-07-29T07:06:27;24.00;54.60
2441;DHT22;1231;53.988;9.470;2022-07-29T07:08:58;23.60;55.40
2441;DHT22;1231;53.988;9.470;2022-07-29T07:11:29;23.20;55.80
2441;DHT22;1231;53.988;9.470;2022-07-29T07:13:59;22.80;56.20
2441;DHT22;1231;53.988;9.470;2022-07-29T07:16:31;22.40;57.00
2441;DHT22;1231;53.988;9.470;2022-07-29T07:19:01;22.20;57.50
2441;DHT22;1231;53.988;9.470;2022-07-29T07:21:33;22.20;57.80
2441;DHT22;1231;53.988;9.470;2022-07-29T07:24:04;22.20;57.80
2441;DHT22;1231;53.988;9.470;2022-07-29T07:26:34;22.10;58.10
2441;DHT22;1231;53.988;9.470;2022-07-29T07:29:05;22.20;58.40
2441;DHT22;1231;53.988;9.470;2022-07-29T07:31:37;22.20;58.50
2441;DHT22;1231;53.988;9.470;2022-07-29T07:34:08;22.20;58.30
2441;DHT22;1231;53.988;9.470;2022-07-29T07:36:38;22.20;58.40
2441;DHT22;1231;53.988;9.470;2022-07-29T07:39:09;22.10;58.80
2441;DHT22;1231;53.988;9.470;2022-07-29T07:41:40;22.00;58.90
2441;DHT22;1231;53.988;9.470;2022-07-29T07:44:10;22.00;59.40
2441;DHT22;1231;53.988;9.470;2022-07-29T07:46:41;22.00;59.40
2441;DHT22;1231;53.988;9.470;2022-07-29T07:49:12;22.00;59.60
2441;DHT22;1231;53.988;9.470;2022-07-29T07:51:42;22.00;59.60
2441;DHT22;1231;53.988;9.470;2022-07-29T07:54:13;22.00;59.90
2441;DHT22;1231;53.988;9.470;2022-07-29T07:56:43;22.10;60.10
2441;DHT22;1231;53.988;9.470;2022-07-29T07:59:14;22.10;59.80
2441;DHT22;1231;53.988;9.470;2022-07-29T08:01:45;22.10;59.90
2441;DHT22;1231;53.988;9.470;2022-07-29T08:04:16;22.20;59.80
2441;DHT22;1231;53.988;9.470;2022-07-29T08:06:46;22.20;59.70
2441;DHT22;1231;53.988;9.470;2022-07-29T08:09:17;22.30;58.90
2441;DHT22;1231;53.988;9.470;2022-07-29T08:11:47;22.30;59.50
2441;DHT22;1231;53.988;9.470;2022-07-29T08:14:19;22.40;59.70
2441;DHT22;1231;53.988;9.470;2022-07-29T08:16:49;22.50;59.50
2441;DHT22;1231;53.988;9.470;2022-07-29T08:19:21;22.60;59.20
2441;DHT22;1231;53.988;9.470;2022-07-29T08:21:51;22.60;58.40
2441;DHT22;1231;53.988;9.470;2022-07-29T08:24:23;22.50;58.60
2441;DHT22;1231;53.988;9.470;2022-07-29T08:27:13;22.40;58.80
2441;DHT22;1231;53.988;9.470;2022-07-29T08:29:44;22.40;59.00
2441;DHT22;1231;53.988;9.470;2022-07-29T08:32:14;22.30;59.40
2441;DHT22;1231;53.988;9.470;2022-07-29T08:34:45;22.20;59.50
2441;DHT22;1231;53.988;9.470;2022-07-29T08:37:16;22.20;60.10
2441;DHT22;1231;53.988;9.470;2022-07-29T08:39:47;22.10;60.10
2441;DHT22;1231;53.988;9.470;2022-07-29T08:42:17;22.10;60.40
2441;DHT22;1231;53.988;9.470;2022-07-29T08:44:48;22.20;60.20
2441;DHT22;1231;53.988;9.470;2022-07-29T08:47:20;22.30;60.30
2441;DHT22;1231;53.988;9.470;2022-07-29T08:49:51;22.40;60.40
2441;DHT22;1231;53.988;9.470;2022-07-29T08:52:25;22.40;59.70
2441;DHT22;1231;53.988;9.470;2022-07-29T08:54:56;22.50;59.60
2441;DHT22;1231;53.988;9.470;2022-07-29T08:57:27;22.60;59.20
2441;DHT22;1231;53.988;9.470;2022-07-29T09:00:00;22.60;59.00
2441;DHT22;1231;53.988;9.470;2022-07-29T09:02:39;22.70;58.50
2441;DHT22;1231;53.988;9.470;2022-07-29T09:05:10;22.80;58.30
2441;DHT22;1231;53.988;9.470;2022-07-29T09:07:41;22.90;58.40
2441;DHT22;1231;53.988;9.470;2022-07-29T09:10:13;22.90;58.50
2441;DHT22;1231;53.988;9.470;2022-07-29T09:12:44;22.90;58.60
2441;DHT22;1231;53.988;9.470;2022-07-29T09:15:15;22.90;58.40
2441;DHT22;1231;53.988;9.470;2022-07-29T09:17:47;23.00;58.60
2441;DHT22;1231;53.988;9.470;2022-07-29T09:20:20;23.00;58.40
2441;DHT22;1231;53.988;9.470;2022-07-29T09:22:52;23.10;58.30
2441;DHT22;1231;53.988;9.470;2022-07-29T09:25:37;23.20;58.40
2441;DHT22;1231;53.988;9.470;2022-07-29T09:28:11;23.10;58.30
2441;DHT22;1231;53.988;9.470;2022-07-29T09:30:56;23.10;58.40
2441;DHT22;1231;53.988;9.470;2022-07-29T09:33:32;23.10;58.30
2441;DHT22;1231;53.988;9.470;2022-07-29T09:36:09;23.10;58.60
2441;DHT22;1231;53.988;9.470;2022-07-29T09:38:39;23.10;58.40
2441;DHT22;1231;53.988;9.470;2022-07-29T09:41:10;23.10;58.30
2441;DHT22;1231;53.988;9.470;2022-07-29T09:43:53;23.10;58.00
2441;DHT22;1231;53.988;9.470;2022-07-29T09:46:25;23.10;57.20
2441;DHT22;1231;53.988;9.470;2022-07-29T09:49:12;23.20;57.60
2441;DHT22;1231;53.988;9.470;2022-07-29T09:51:43;23.20;57.50
2441;DHT22;1231;53.988;9.470;2022-07-29T09:54:24;23.40;57.20
2441;DHT22;1231;53.988;9.470;2022-07-29T09:56:56;23.70;57.30
2441;DHT22;1231;53.988;9.470;2022-07-29T09:59:26;23.90;56.10
2441;DHT22;1231;53.988;9.470;2022-07-29T10:01:59;24.20;56.60
2441;DHT22;1231;53.988;9.470;2022-07-29T10:04:42;24.30;55.70
2441;DHT22;1231;53.988;9.470;2022-07-29T10:07:13;24.40;55.10
2441;DHT22;1231;53.988;9.470;2022-07-29T10:09:56;24.40;54.60
2441;DHT22;1231;53.988;9.470;2022-07-29T10:12:27;24.40;54.70
2441;DHT22;1231;53.988;9.470;2022-07-29T10:14:58;24.40;54.20
2441;DHT22;1231;53.988;9.470;2022-07-29T10:17:29;24.40;54.20
2441;DHT22;1231;53.988;9.470;2022-07-29T10:19:59;24.40;53.90
2441;DHT22;1231;53.988;9.470;2022-07-29T10:22:30;24.40;54.00
2441;DHT22;1231;53.988;9.470;2022-07-29T10:25:01;24.50;54.20
2441;DHT22;1231;53.988;9.470;2022-07-29T10:27:32;24.50;53.80
2441;DHT22;1231;53.988;9.470;2022-07-29T10:30:06;24.60;54.10
2441;DHT22;1231;53.988;9.470;2022-07-29T10:41:47;24.70;54.00
2441;DHT22;1231;53.988;9.470;2022-07-29T10:44:22;24.60;53.70
2441;DHT22;1231;53.988;9.470;2022-07-29T10:46:54;24.50;53.10
2441;DHT22;1231;53.988;9.470;2022-07-29T10:49:26;24.40;53.30
2441;DHT22;1231;53.988;9.470;2022-07-29T10:54:38;24.30;54.00
2441;DHT22;1231;53.988;9.470;2022-07-29T10:57:22;24.20;53.90
2441;DHT22;1231;53.988;9.470;2022-07-29T11:02:42;24.30;54.00
2441;DHT22;1231;53.988;9.470;2022-07-29T11:05:14;24.40;54.00
2441;DHT22;1231;53.988;9.470;2022-07-29T11:10:42;24.60;53.20
2441;DHT22;1231;53.988;9.470;2022-07-29T11:13:24;24.60;53.50
2441;DHT22;1231;53.988;9.470;2022-07-29T11:16:04;24.60;53.30
2441;DHT22;1231;53.988;9.470;2022-07-29T11:18:36;24.70;53.30
2441;DHT22;1231;53.988;9.470;2022-07-29T11:21:36;24.70;52.20
2441;DHT22;1231;53.988;9.470;2022-07-29T11:24:14;24.70;52.20
2441;DHT22;1231;53.988;9.470;2022-07-29T11:26:45;24.80;52.50
2441;DHT22;1231;53.988;9.470;2022-07-29T11:29:59;24.80;52.70
2441;DHT22;1231;53.988;9.470;2022-07-29T11:32:39;24.90;52.50
2441;DHT22;1231;53.988;9.470;2022-07-29T11:35:21;25.00;52.00
2441;DHT22;1231;53.988;9.470;2022-07-29T11:41:22;25.10;52.30
2441;DHT22;1231;53.988;9.470;2022-07-29T11:49:22;25.10;51.50
2441;DHT22;1231;53.988;9.470;2022-07-29T11:51:55;25.10;51.70
2441;DHT22;1231;53.988;9.470;2022-07-29T11:54:35;25.10;51.80
2441;DHT22;1231;53.988;9.470;2022-07-29T11:57:07;25.30;52.10
2441;DHT22;1231;53.988;9.470;2022-07-29T11:59:43;25.40;52.20
2441;DHT22;1231;53.988;9.470;2022-07-29T12:02:15;25.50;51.70
2441;DHT22;1231;53.988;9.470;2022-07-29T12:07:31;25.50;50.40
2441;DHT22;1231;53.988;9.470;2022-07-29T12:10:04;25.50;49.50
2441;DHT22;1231;53.988;9.470;2022-07-29T12:12:35;25.40;49.30
2441;DHT22;1231;53.988;9.470;2022-07-29T12:15:17;25.50;49.70
2441;DHT22;1231;53.988;9.470;2022-07-29T12:17:50;25.50;49.50
2441;DHT22;1231;53.988;9.470;2022-07-29T12:20:29;25.50;49.00
2441;DHT22;1231;53.988;9.470;2022-07-29T12:23:05;25.60;49.00
2441;DHT22;1231;53.988;9.470;2022-07-29T12:25:39;25.60;49.20
2441;DHT22;1231;53.988;9.470;2022-07-29T12:28:13;25.60;49.30
2441;DHT22;1231;53.988;9.470;2022-07-29T12:30:46;25.60;49.50
2441;DHT22;1231;53.988;9.470;2022-07-29T12:33:24;25.60;50.20
2441;DHT22;1231;53.988;9.470;2022-07-29T12:35:57;25.80;50.50
2441;DHT22;1231;53.988;9.470;2022-07-29T12:38:28;26.10;49.30
2441;DHT22;1231;53.988;9.470;2022-07-29T12:40:59;26.30;48.10
2441;DHT22;1231;53.988;9.470;2022-07-29T12:43:30;26.50;47.90
2441;DHT22;1231;53.988;9.470;2022-07-29T12:46:12;26.70;47.80
2441;DHT22;1231;53.988;9.470;2022-07-29T12:48:43;26.70;48.00
2441;DHT22;1231;53.988;9.470;2022-07-29T12:51:14;26.70;47.20
2441;DHT22;1231;53.988;9.470;2022-07-29T12:56:34;26.80;46.20
2441;DHT22;1231;53.988;9.470;2022-07-29T12:59:31;27.00;45.70
2441;DHT22;1231;53.988;9.470;2022-07-29T13:02:02;27.10;45.80
2441;DHT22;1231;53.988;9.470;2022-07-29T13:04:33;27.20;45.40
2441;DHT22;1231;53.988;9.470;2022-07-29T13:07:07;27.20;45.30
2441;DHT22;1231;53.988;9.470;2022-07-29T13:09:44;26.90;44.20
2441;DHT22;1231;53.988;9.470;2022-07-29T13:12:18;26.80;44.70
2441;DHT22;1231;53.988;9.470;2022-07-29T13:14:49;26.70;45.20
2441;DHT22;1231;53.988;9.470;2022-07-29T13:17:22;26.60;45.90
2441;DHT22;1231;53.988;9.470;2022-07-29T13:20:13;26.50;46.30
2441;DHT22;1231;53.988;9.470;2022-07-29T13:22:47;26.50;47.00
2441;DHT22;1231;53.988;9.470;2022-07-29T13:25:26;26.40;46.40
2441;DHT22;1231;53.988;9.470;2022-07-29T13:27:59;26.40;46.20
2441;DHT22;1231;53.988;9.470;2022-07-29T13:30:29;26.50;46.50
2441;DHT22;1231;53.988;9.470;2022-07-29T13:33:00;26.60;46.00
2441;DHT22;1231;53.988;9.470;2022-07-29T13:35:31;26.60;45.90
2441;DHT22;1231;53.988;9.470;2022-07-29T13:38:01;26.70;45.40
2441;DHT22;1231;53.988;9.470;2022-07-29T13:40:32;26.80;44.90
2441;DHT22;1231;53.988;9.470;2022-07-29T13:43:05;26.70;44.50
2441;DHT22;1231;53.988;9.470;2022-07-29T13:45:38;26.70;44.80
2441;DHT22;1231;53.988;9.470;2022-07-29T13:48:09;26.60;45.40
2441;DHT22;1231;53.988;9.470;2022-07-29T13:50:40;26.60;45.60
2441;DHT22;1231;53.988;9.470;2022-07-29T13:53:11;26.70;45.30
2441;DHT22;1231;53.988;9.470;2022-07-29T13:55:41;26.60;45.50
2441;DHT22;1231;53.988;9.470;2022-07-29T13:58:12;26.60;45.70
2441;DHT22;1231;53.988;9.470;2022-07-29T14:00:43;26.50;45.50
2441;DHT22;1231;53.988;9.470;2022-07-29T14:03:13;26.50;45.30
2441;DHT22;1231;53.988;9.470;2022-07-29T14:05:44;26.40;45.40
2441;DHT22;1231;53.988;9.470;2022-07-29T14:08:16;26.40;45.30
2441;DHT22;1231;53.988;9.470;2022-07-29T14:10:46;26.30;45.70
2441;DHT22;1231;53.988;9.470;2022-07-29T14:13:17;26.10;46.10
2441;DHT22;1231;53.988;9.470;2022-07-29T14:15:48;25.80;46.60
2441;DHT22;1231;53.988;9.470;2022-07-29T14:18:18;25.70;47.50
2441;DHT22;1231;53.988;9.470;2022-07-29T14:20:49;25.70;47.80
2441;DHT22;1231;53.988;9.470;2022-07-29T14:23:21;25.60;47.90
2441;DHT22;1231;53.988;9.470;2022-07-29T14:25:52;25.60;47.90
2441;DHT22;1231;53.988;9.470;2022-07-29T14:28:22;25.60;47.80
2441;DHT22;1231;53.988;9.470;2022-07-29T14:30:53;25.60;48.60
2441;DHT22;1231;53.988;9.470;2022-07-29T14:33:23;25.50;48.30
2441;DHT22;1231;53.988;9.470;2022-07-29T14:35:54;25.50;48.90
2441;DHT22;1231;53.988;9.470;2022-07-29T14:38:24;25.50;49.10
2441;DHT22;1231;53.988;9.470;2022-07-29T14:40:55;25.50;49.20
2441;DHT22;1231;53.988;9.470;2022-07-29T14:43:26;25.60;48.90
2441;DHT22;1231;53.988;9.470;2022-07-29T14:45:56;25.80;48.80
2441;DHT22;1231;53.988;9.470;2022-07-29T14:48:27;25.90;48.60
2441;DHT22;1231;53.988;9.470;2022-07-29T14:50:58;26.10;48.20
2441;DHT22;1231;53.988;9.470;2022-07-29T14:53:29;26.10;47.60
2441;DHT22;1231;53.988;9.470;2022-07-29T14:55:59;26.00;47.90
2441;DHT22;1231;53.988;9.470;2022-07-29T14:58:30;26.00;48.00
2441;DHT22;1231;53.988;9.470;2022-07-29T15:01:00;26.00;48.40
2441;DHT22;1231;53.988;9.470;2022-07-29T15:03:31;26.00;48.70
2441;DHT22;1231;53.988;9.470;2022-07-29T15:06:02;26.00;48.30
2441;DHT22;1231;53.988;9.470;2022-07-29T15:08:32;26.00;48.50
2441;DHT22;1231;53.988;9.470;2022-07-29T15:11:03;25.90;48.70
2441;DHT22;1231;53.988;9.470;2022-07-29T15:13:34;25.80;48.60
2441;DHT22;1231;53.988;9.470;2022-07-29T15:16:05;25.80;48.80
2441;DHT22;1231;53.988;9.470;2022-07-29T15:18:36;25.80;49.20
2441;DHT22;1231;53.988;9.470;2022-07-29T15:21:08;25.90;49.70
2441;DHT22;1231;53.988;9.470;2022-07-29T15:23:39;25.80;48.80
2441;DHT22;1231;53.988;9.470;2022-07-29T15:26:09;25.90;49.00
2441;DHT22;1231;53.988;9.470;2022-07-29T15:28:40;25.90;48.60
2441;DHT22;1231;53.988;9.470;2022-07-29T15:31:10;25.90;48.60
2441;DHT22;1231;53.988;9.470;2022-07-29T15:33:41;26.00;48.10
2441;DHT22;1231;53.988;9.470;2022-07-29T15:36:11;26.00;47.90
2441;DHT22;1231;53.988;9.470;2022-07-29T15:38:42;26.10;48.20
2441;DHT22;1231;53.988;9.470;2022-07-29T15:41:14;26.10;48.00
2441;DHT22;1231;53.988;9.470;2022-07-29T15:43:45;26.10;48.30
2441;DHT22;1231;53.988;9.470;2022-07-29T15:46:19;26.10;48.60
2441;DHT22;1231;53.988;9.470;2022-07-29T15:49:08;26.10;49.00
2441;DHT22;1231;53.988;9.470;2022-07-29T15:51:39;26.10;49.70
2441;DHT22;1231;53.988;9.470;2022-07-29T15:54:10;26.10;49.50
2441;DHT22;1231;53.988;9.470;2022-07-29T15:56:40;26.10;48.80
2441;DHT22;1231;53.988;9.470;2022-07-29T15:59:11;26.00;48.90
2441;DHT22;1231;53.988;9.470;2022-07-29T16:01:41;25.90;49.20
2441;DHT22;1231;53.988;9.470;2022-07-29T16:04:12;25.90;50.00
2441;DHT22;1231;53.988;9.470;2022-07-29T16:06:44;25.80;49.80
2441;DHT22;1231;53.988;9.470;2022-07-29T16:09:15;25.80;50.10
2441;DHT22;1231;53.988;9.470;2022-07-29T16:11:46;25.80;50.30
2441;DHT22;1231;53.988;9.470;2022-07-29T16:14:20;25.60;50.80
2441;DHT22;1231;53.988;9.470;2022-07-29T16:16:50;25.50;50.80
2441;DHT22;1231;53.988;9.470;2022-07-29T16:19:21;25.40;50.90
2441;DHT22;1231;53.988;9.470;2022-07-29T16:21:52;25.40;51.10
2441;DHT22;1231;53.988;9.470;2022-07-29T16:24:22;25.20;51.40
2441;DHT22;1231;53.988;9.470;2022-07-29T16:26:58;25.20;51.80
2441;DHT22;1231;53.988;9.470;2022-07-29T16:29:29;25.10;52.00
2441;DHT22;1231;53.988;9.470;2022-07-29T16:32:00;25.10;52.10
2441;DHT22;1231;53.988;9.470;2022-07-29T16:34:31;25.00;51.90
2441;DHT22;1231;53.988;9.470;2022-07-29T16:37:01;24.90;52.40
2441;DHT22;1231;53.988;9.470;2022-07-29T16:39:32;24.90;52.60
2441;DHT22;1231;53.988;9.470;2022-07-29T16:42:03;24.80;52.70
2441;DHT22;1231;53.988;9.470;2022-07-29T16:44:34;24.70;52.70
2441;DHT22;1231;53.988;9.470;2022-07-29T16:47:04;24.70;53.10
2441;DHT22;1231;53.988;9.470;2022-07-29T16:49:35;24.70;53.40
2441;DHT22;1231;53.988;9.470;2022-07-29T16:52:05;24.70;53.50
2441;DHT22;1231;53.988;9.470;2022-07-29T16:54:37;24.70;53.70
2441;DHT22;1231;53.988;9.470;2022-07-29T16:57:07;24.70;53.70
2441;DHT22;1231;53.988;9.470;2022-07-29T16:59:38;24.70;53.90
2441;DHT22;1231;53.988;9.470;2022-07-29T17:02:09;24.60;54.10
2441;DHT22;1231;53.988;9.470;2022-07-29T17:04:41;24.60;54.00
2441;DHT22;1231;53.988;9.470;2022-07-29T17:07:11;24.60;54.00
2441;DHT22;1231;53.988;9.470;2022-07-29T17:09:42;24.50;53.90
2441;DHT22;1231;53.988;9.470;2022-07-29T17:12:13;24.50;53.70
2441;DHT22;1231;53.988;9.470;2022-07-29T17:14:43;24.50;53.80
2441;DHT22;1231;53.988;9.470;2022-07-29T17:17:14;24.40;53.90
2441;DHT22;1231;53.988;9.470;2022-07-29T17:19:44;24.30;53.50